sensor_id;sensor_type;location;lat;lon;timestamp;pressure;altitude;pressure_sealevel;temperature;humidity
49759;BME280;35654;46.080;11.118;2022-12-10T00:01:23;98039.41;;;2.77;100.00
49759;BME280;35654;46.080;11.118;2022-12-10T00:03:50;98039.16;;;2.73;100.00
49759;BME280;35654;46.080;11.118;2022-12-10T00:06:18;98037.53;;;2.72;100.00
49759;BME280;35654;46.080;11.118;2022-12-10T00:08:44;98027.53;;;2.73;100.00
49759;BME280;35654;46.080;11.118;2022-12-10T00:11:12;98026.44;;;2.74;100.00
49759;BME280;35654;46.080;11.118;2022-12-10T00:13:38;98025.91;;;2.72;100.00
49759;BME280;35654;46.080;11.118;2022-12-10T00:16:06;98030.25;;;2.63;100.00
49759;BME280;35654;46.080;11.118;2022-12-10T00:18:33;98028.94;;;2.55;100.00
49759;BME280;35654;46.080;11.118;2022-12-10T00:21:02;98024.34;;;2.56;100.00
49759;BME280;35654;46.080;11.118;2022-12-10T00:23:28;98026.22;;;2.60;100.00
49759;BME280;35654;46.080;11.118;2022-12-10T00:26:04;98022.16;;;2.68;100.00
49759;BME280;35654;46.080;11.118;2022-12-10T00:28:31;98017.84;;;2.62;100.00
49759;BME280;35654;46.080;11.118;2022-12-10T00:31:15;98020.53;;;2.67;100.00
49759;BME280;35654;46.080;11.118;2022-12-10T00:33:42;98020.78;;;2.65;100.00
49759;BME280;35654;46.080;11.118;2022-12-10T00:36:19;98015.66;;;2.69;100.00
49759;BME280;35654;46.080;11.118;2022-12-10T00:38:46;98015.66;;;2.69;100.00
49759;BME280;35654;46.080;11.118;2022-12-10T00:41:12;98014.84;;;2.68;100.00
49759;BME280;35654;46.080;11.118;2022-12-10T00:43:39;98013.47;;;2.71;100.00
49759;BME280;35654;46.080;11.118;2022-12-10T00:46:05;98019.47;;;2.63;100.00
49759;BME280;35654;46.080;11.118;2022-12-10T00:48:31;98014.59;;;2.60;100.00
49759;BME280;35654;46.080;11.118;2022-12-10T00:53:36;98017.88;;;2.57;100.00
49759;BME280;35654;46.080;11.118;2022-12-10T00:56:03;98021.88;;;2.69;100.00
49759;BME280;35654;46.080;11.118;2022-12-10T00:58:33;98022.13;;;2.73;100.00
49759;BME280;35654;46.080;11.118;2022-12-10T01:01:13;98035.91;;;2.71;100.00
49759;BME280;35654;46.080;11.118;2022-12-10T01:03:40;98044.34;;;2.65;100.00
49759;BME280;35654;46.080;11.118;2022-12-10T01:06:11;98041.63;;;2.65;100.00
49759;BME280;35654;46.080;11.118;2022-12-10T01:08:38;98040.25;;;2.72;100.00
49759;BME280;35654;46.080;11.118;2022-12-10T01:11:04;98044.28;;;2.75;100.00
49759;BME280;35654;46.080;11.118;2022-12-10T01:13:29;98043.50;;;2.69;100.00
49759;BME280;35654;46.080;11.118;2022-12-10T01:15:55;98043.50;;;2.64;100.00
49759;BME280;35654;46.080;11.118;2022-12-10T01:18:20;98038.66;;;2.61;100.00
49759;BME280;35654;46.080;11.118;2022-12-10T01:20:45;98045.13;;;2.60;100.00
49759;BME280;35654;46.080;11.118;2022-12-10T01:23:11;98043.53;;;2.54;100.00
49759;BME280;35654;46.080;11.118;2022-12-10T01:25:36;98036.78;;;2.57;100.00
49759;BME280;35654;46.080;11.118;2022-12-10T01:28:01;98037.28;;;2.69;100.00
49759;BME280;35654;46.080;11.118;2022-12-10T01:30:27;98042.09;;;2.77;100.00
49759;BME280;35654;46.080;11.118;2022-12-10T01:32:52;98038.84;;;2.80;100.00
49759;BME280;35654;46.080;11.118;2022-12-10T01:35:18;98042.38;;;2.80;100.00
49759;BME280;35654;46.080;11.118;2022-12-10T01:37:43;98041.03;;;2.78;100.00
49759;BME280;35654;46.080;11.118;2022-12-10T01:40:09;98030.19;;;2.83;100.00
49759;BME280;35654;46.080;11.118;2022-12-10T01:42:34;98024.78;;;2.83;100.00
49759;BME280;35654;46.080;11.118;2022-12-10T01:45:03;98025.59;;;2.83;100.00
49759;BME280;35654;46.080;11.118;2022-12-10T01:47:29;98029.94;;;2.74;100.00
49759;BME280;35654;46.080;11.118;2022-12-10T01:49:55;98033.53;;;2.65;100.00
49759;BME280;35654;46.080;11.118;2022-12-10T01:52:22;98042.69;;;2.69;100.00
49759;BME280;35654;46.080;11.118;2022-12-10T01:54:47;98038.06;;;2.74;100.00
49759;BME280;35654;46.080;11.118;2022-12-10T01:57:19;98041.03;;;2.78;100.00
49759;BME280;35654;46.080;11.118;2022-12-10T01:59:48;98034.53;;;2.79;100.00
49759;BME280;35654;46.080;11.118;2022-12-10T02:02:36;98037.28;;;2.69;100.00
49759;BME280;35654;46.080;11.118;2022-12-10T02:05:23;98036.78;;;2.57;100.00
49759;BME280;35654;46.080;11.118;2022-12-10T02:08:18;98044.59;;;2.63;100.00
49759;BME280;35654;46.080;11.118;2022-12-10T02:11:12;98034.53;;;2.74;100.00
49759;BME280;35654;46.080;11.118;2022-12-10T02:14:08;98041.28;;;2.76;100.00
49759;BME280;35654;46.080;11.118;2022-12-10T02:17:04;98030.22;;;2.78;100.00
49759;BME280;35654;46.080;11.118;2022-12-10T02:22:02;98034.00;;;2.82;100.00
49759;BME280;35654;46.080;11.118;2022-12-10T02:24:32;98024.78;;;2.83;100.00
49759;BME280;35654;46.080;11.118;2022-12-10T02:29:47;98016.16;;;2.81;100.00
49759;BME280;35654;46.080;11.118;2022-12-10T02:32:19;98013.72;;;2.79;100.00
49759;BME280;35654;46.080;11.118;2022-12-10T02:34:50;98009.97;;;2.75;100.00
49759;BME280;35654;46.080;11.118;2022-12-10T02:37:21;98005.38;;;2.76;100.00
49759;BME280;35654;46.080;11.118;2022-12-10T02:39:51;98008.34;;;2.69;100.00
49759;BME280;35654;46.080;11.118;2022-12-10T02:42:19;98005.63;;;2.74;100.00
49759;BME280;35654;46.080;11.118;2022-12-10T02:44:48;97994.00;;;2.79;100.00
49759;BME280;35654;46.080;11.118;2022-12-10T02:47:16;97993.22;;;2.73;100.00
49759;BME280;35654;46.080;11.118;2022-12-10T02:49:43;97993.78;;;2.65;100.00
49759;BME280;35654;46.080;11.118;2022-12-10T02:52:14;97986.75;;;2.64;100.00
49759;BME280;35654;46.080;11.118;2022-12-10T02:57:18;97986.19;;;2.72;100.00
49759;BME280;35654;46.080;11.118;2022-12-10T03:05:27;97989.41;;;2.74;100.00
49759;BME280;35654;46.080;11.118;2022-12-10T03:08:03;97992.63;;;2.76;100.00
49759;BME280;35654;46.080;11.118;2022-12-10T03:13:39;97990.19;;;2.80;100.00
49759;BME280;35654;46.080;11.118;2022-12-10T03:16:05;97988.59;;;2.79;100.00
49759;BME280;35654;46.080;11.118;2022-12-10T03:18:34;97989.66;;;2.78;100.00
49759;BME280;35654;46.080;11.118;2022-12-10T03:21:03;97985.09;;;2.73;100.00
49759;BME280;35654;46.080;11.118;2022-12-10T03:23:31;97989.97;;;2.71;100.00
49759;BME280;35654;46.080;11.118;2022-12-10T03:25:58;97981.88;;;2.66;100.00
49759;BME280;35654;46.080;11.118;2022-12-10T03:28:25;97980.84;;;2.57;100.00
49759;BME280;35654;46.080;11.118;2022-12-10T03:30:52;97971.41;;;2.50;100.00
49759;BME280;35654;46.080;11.118;2022-12-10T03:33:19;97973.28;;;2.59;100.00
49759;BME280;35654;46.080;11.118;2022-12-10T03:35:45;97970.25;;;2.66;100.00
49759;BME280;35654;46.080;11.118;2022-12-10T03:38:12;97971.59;;;2.68;100.00
49759;BME280;35654;46.080;11.118;2022-12-10T03:40:38;97970.81;;;2.63;100.00
49759;BME280;35654;46.080;11.118;2022-12-10T03:43:04;97972.47;;;2.59;100.00
49759;BME280;35654;46.080;11.118;2022-12-10T03:45:29;97976.25;;;2.58;100.00
49759;BME280;35654;46.080;11.118;2022-12-10T03:47:54;97973.75;;;2.71;100.00
49759;BME280;35654;46.080;11.118;2022-12-10T03:50:20;97972.13;;;2.75;100.00
49759;BME280;35654;46.080;11.118;2022-12-10T03:52:45;97954.00;;;2.76;100.00
49759;BME280;35654;46.080;11.118;2022-12-10T03:55:11;97953.19;;;2.75;100.00
49759;BME280;35654;46.080;11.118;2022-12-10T03:57:36;97958.31;;;2.77;100.00
49759;BME280;35654;46.080;11.118;2022-12-10T04:00:04;97955.94;;;2.70;100.00
49759;BME280;35654;46.080;11.118;2022-12-10T04:02:29;97950.25;;;2.72;100.00
49759;BME280;35654;46.080;11.118;2022-12-10T04:04:55;97956.19;;;2.69;100.00
49759;BME280;35654;46.080;11.118;2022-12-10T04:07:20;97955.91;;;2.75;100.00
49759;BME280;35654;46.080;11.118;2022-12-10T04:09:45;97951.81;;;2.78;100.00
49759;BME280;35654;46.080;11.118;2022-12-10T04:12:11;97944.25;;;2.80;100.00
49759;BME280;35654;46.080;11.118;2022-12-10T04:14:36;97943.97;;;2.76;100.00
49759;BME280;35654;46.080;11.118;2022-12-10T04:17:20;97947.25;;;2.78;100.00
49759;BME280;35654;46.080;11.118;2022-12-10T04:19:45;97946.41;;;2.78;100.00
49759;BME280;35654;46.080;11.118;2022-12-10T04:22:11;97943.44;;;2.79;100.00
49759;BME280;35654;46.080;11.118;2022-12-10T04:24:55;97941.78;;;2.83;100.00
49759;BME280;35654;46.080;11.118;2022-12-10T04:27:40;97938.03;;;2.79;100.00
49759;BME280;35654;46.080;11.118;2022-12-10T04:30:09;97933.69;;;2.83;100.00
49759;BME280;35654;46.080;11.118;2022-12-10T04:32:35;97929.63;;;2.86;100.00
49759;BME280;35654;46.080;11.118;2022-12-10T04:35:00;97936.44;;;2.78;100.00
49759;BME280;35654;46.080;11.118;2022-12-10T04:37:27;97939.44;;;2.72;100.00
49759;BME280;35654;46.080;11.118;2022-12-10T04:39:52;97924.84;;;2.73;100.00
49759;BME280;35654;46.080;11.118;2022-12-10T04:42:19;97925.88;;;2.77;100.00
49759;BME280;35654;46.080;11.118;2022-12-10T04:44:44;97922.09;;;2.78;100.00
49759;BME280;35654;46.080;11.118;2022-12-10T04:47:11;97928.03;;;2.80;100.00
49759;BME280;35654;46.080;11.118;2022-12-10T04:49:37;97933.97;;;2.77;100.00
49759;BME280;35654;46.080;11.118;2022-12-10T04:52:04;97938.94;;;2.65;100.00
49759;BME280;35654;46.080;11.118;2022-12-10T04:54:31;97929.25;;;2.59;100.00
49759;BME280;35654;46.080;11.118;2022-12-10T04:56:56;97930.53;;;2.66;100.00
49759;BME280;35654;46.080;11.118;2022-12-10T04:59:22;97931.06;;;2.73;100.00
49759;BME280;35654;46.080;11.118;2022-12-10T05:01:48;97922.38;;;2.76;100.00
49759;BME280;35654;46.080;11.118;2022-12-10T05:04:16;97929.44;;;2.72;100.00
49759;BME280;35654;46.080;11.118;2022-12-10T05:06:41;97922.94;;;2.68;100.00
49759;BME280;35654;46.080;11.118;2022-12-10T05:09:07;97928.91;;;2.70;100.00
49759;BME280;35654;46.080;11.118;2022-12-10T05:11:34;97923.50;;;2.65;100.00
49759;BME280;35654;46.080;11.118;2022-12-10T05:14:00;97932.75;;;2.59;100.00
49759;BME280;35654;46.080;11.118;2022-12-10T05:16:28;97933.00;;;2.58;100.00
49759;BME280;35654;46.080;11.118;2022-12-10T05:18:55;97931.41;;;2.57;100.00
49759;BME280;35654;46.080;11.118;2022-12-10T05:21:22;97932.47;;;2.61;100.00
49759;BME280;35654;46.080;11.118;2022-12-10T05:23:48;97932.38;;;2.71;100.00
49759;BME280;35654;46.080;11.118;2022-12-10T05:28:56;97927.31;;;2.64;100.00
49759;BME280;35654;46.080;11.118;2022-12-10T05:31:24;97931.63;;;2.65;100.00
49759;BME280;35654;46.080;11.118;2022-12-10T05:33:50;97930.50;;;2.71;100.00
49759;BME280;35654;46.080;11.118;2022-12-10T05:36:19;97926.44;;;2.74;100.00
49759;BME280;35654;46.080;11.118;2022-12-10T05:38:45;97927.81;;;2.71;100.00
49759;BME280;35654;46.080;11.118;2022-12-10T05:41:13;97928.56;;;2.77;100.00
49759;BME280;35654;46.080;11.118;2022-12-10T05:43:40;97932.34;;;2.81;100.00
49759;BME280;35654;46.080;11.118;2022-12-10T05:46:09;97922.56;;;2.85;100.00
49759;BME280;35654;46.080;11.118;2022-12-10T05:48:35;97925.28;;;2.85;100.00
49759;BME280;35654;46.080;11.118;2022-12-10T05:51:13;97938.28;;;2.83;100.00
49759;BME280;35654;46.080;11.118;2022-12-10T05:53:39;97922.34;;;2.81;100.00
49759;BME280;35654;46.080;11.118;2022-12-10T05:56:24;97925.88;;;2.77;100.00
49759;BME280;35654;46.080;11.118;2022-12-10T05:58:51;97917.53;;;2.68;100.00
49759;BME280;35654;46.080;11.118;2022-12-10T06:01:22;97920.03;;;2.65;100.00
49759;BME280;35654;46.080;11.118;2022-12-10T06:03:49;97922.47;;;2.61;100.00
49759;BME280;35654;46.080;11.118;2022-12-10T06:06:22;97922.16;;;2.68;100.00
49759;BME280;35654;46.080;11.118;2022-12-10T06:08:48;97920.75;;;2.75;100.00
49759;BME280;35654;46.080;11.118;2022-12-10T06:11:14;97917.50;;;2.78;100.00
49759;BME280;35654;46.080;11.118;2022-12-10T06:13:39;97906.09;;;2.86;100.00
49759;BME280;35654;46.080;11.118;2022-12-10T06:16:09;97910.66;;;2.91;100.00
49759;BME280;35654;46.080;11.118;2022-12-10T06:18:35;97910.44;;;2.87;100.00
49759;BME280;35654;46.080;11.118;2022-12-10T06:21:06;97909.63;;;2.87;100.00
49759;BME280;35654;46.080;11.118;2022-12-10T06:23:34;97912.88;;;2.84;100.00
49759;BME280;35654;46.080;11.118;2022-12-10T06:26:04;97907.97;;;2.86;100.00
49759;BME280;35654;46.080;11.118;2022-12-10T06:28:29;97910.44;;;2.87;100.00
49759;BME280;35654;46.080;11.118;2022-12-10T06:30:58;97898.81;;;2.87;100.00
49759;BME280;35654;46.080;11.118;2022-12-10T06:33:23;97908.84;;;2.76;100.00
49759;BME280;35654;46.080;11.118;2022-12-10T06:35:49;97905.56;;;2.84;100.00
49759;BME280;35654;46.080;11.118;2022-12-10T06:38:14;97899.91;;;2.81;100.00
49759;BME280;35654;46.080;11.118;2022-12-10T06:40:39;97910.00;;;2.70;100.00
49759;BME280;35654;46.080;11.118;2022-12-10T06:43:05;97908.41;;;2.64;100.00
49759;BME280;35654;46.080;11.118;2022-12-10T06:45:31;97910.81;;;2.66;100.00
49759;BME280;35654;46.080;11.118;2022-12-10T06:47:58;97909.94;;;2.75;100.00
49759;BME280;35654;46.080;11.118;2022-12-10T06:50:24;97906.41;;;2.80;100.00
49759;BME280;35654;46.080;11.118;2022-12-10T06:52:50;97899.91;;;2.81;100.00
49759;BME280;35654;46.080;11.118;2022-12-10T06:55:16;97904.03;;;2.73;100.00
49759;BME280;35654;46.080;11.118;2022-12-10T06:57:42;97894.25;;;2.77;100.00
49759;BME280;35654;46.080;11.118;2022-12-10T07:00:08;97894.00;;;2.79;100.00
49759;BME280;35654;46.080;11.118;2022-12-10T07:02:37;97901.56;;;2.77;100.00
49759;BME280;35654;46.080;11.118;2022-12-10T07:05:02;97898.06;;;2.71;100.00
49759;BME280;35654;46.080;11.118;2022-12-10T07:07:28;97901.84;;;2.75;100.00
49759;BME280;35654;46.080;11.118;2022-12-10T07:09:53;97899.91;;;2.81;100.00
49759;BME280;35654;46.080;11.118;2022-12-10T07:12:19;97901.81;;;2.80;100.00
49759;BME280;35654;46.080;11.118;2022-12-10T07:14:44;97908.28;;;2.79;100.00
49759;BME280;35654;46.080;11.118;2022-12-10T07:17:09;97914.47;;;2.85;100.00
49759;BME280;35654;46.080;11.118;2022-12-10T07:19:35;97901.16;;;2.99;100.00
49759;BME280;35654;46.080;11.118;2022-12-10T07:22:02;97903.78;;;3.09;100.00
49759;BME280;35654;46.080;11.118;2022-12-10T07:24:29;97904.50;;;3.19;100.00
49759;BME280;35654;46.080;11.118;2022-12-10T07:26:56;97895.25;;;3.25;100.00
49759;BME280;35654;46.080;11.118;2022-12-10T07:29:22;97892.53;;;3.25;100.00
49759;BME280;35654;46.080;11.118;2022-12-10T07:31:49;97889.59;;;3.22;100.00
49759;BME280;35654;46.080;11.118;2022-12-10T07:34:16;97891.50;;;3.21;100.00
49759;BME280;35654;46.080;11.118;2022-12-10T07:36:41;97896.94;;;3.16;100.00
49759;BME280;35654;46.080;11.118;2022-12-10T07:39:08;97919.13;;;3.13;100.00
49759;BME280;35654;46.080;11.118;2022-12-10T07:41:34;97915.56;;;3.23;100.00
49759;BME280;35654;46.080;11.118;2022-12-10T07:44:02;97913.38;;;3.25;100.00
49759;BME280;35654;46.080;11.118;2022-12-10T07:46:30;97903.53;;;3.39;100.00
49759;BME280;35654;46.080;11.118;2022-12-10T07:48:56;97907.31;;;3.38;100.00
49759;BME280;35654;46.080;11.118;2022-12-10T07:51:24;97911.88;;;3.42;100.00
49759;BME280;35654;46.080;11.118;2022-12-10T07:53:53;97902.38;;;3.45;100.00
49759;BME280;35654;46.080;11.118;2022-12-10T07:56:19;97910.50;;;3.45;100.00
49759;BME280;35654;46.080;11.118;2022-12-10T07:58:46;97911.38;;;3.40;100.00
49759;BME280;35654;46.080;11.118;2022-12-10T08:01:17;97923.75;;;3.46;100.00
49759;BME280;35654;46.080;11.118;2022-12-10T08:03:43;97924.34;;;3.38;100.00
49759;BME280;35654;46.080;11.118;2022-12-10T08:06:12;97911.53;;;3.49;100.00
49759;BME280;35654;46.080;11.118;2022-12-10T08:08:40;97911.84;;;3.47;100.00
49759;BME280;35654;46.080;11.118;2022-12-10T08:11:06;97912.91;;;3.46;100.00
49759;BME280;35654;46.080;11.118;2022-12-10T08:13:33;97905.56;;;3.52;100.00
49759;BME280;35654;46.080;11.118;2022-12-10T08:16:17;97898.13;;;3.68;100.00
49759;BME280;35654;46.080;11.118;2022-12-10T08:18:45;97909.31;;;3.85;100.00
49759;BME280;35654;46.080;11.118;2022-12-10T08:21:17;97902.38;;;3.97;100.00
49759;BME280;35654;46.080;11.118;2022-12-10T08:23:45;97916.22;;;3.96;100.00
49759;BME280;35654;46.080;11.118;2022-12-10T08:26:15;97906.59;;;4.08;100.00
49759;BME280;35654;46.080;11.118;2022-12-10T08:28:42;97904.22;;;4.26;100.00
49759;BME280;35654;46.080;11.118;2022-12-10T08:31:08;97914.16;;;4.35;100.00
49759;BME280;35654;46.080;11.118;2022-12-10T08:33:34;97917.94;;;4.34;100.00
49759;BME280;35654;46.080;11.118;2022-12-10T08:36:02;97911.13;;;4.37;100.00
49759;BME280;35654;46.080;11.118;2022-12-10T08:38:28;97905.38;;;4.43;100.00
49759;BME280;35654;46.080;11.118;2022-12-10T08:40:54;97902.81;;;4.52;100.00
49759;BME280;35654;46.080;11.118;2022-12-10T08:43:20;97901.50;;;4.49;100.00
49759;BME280;35654;46.080;11.118;2022-12-10T08:45:45;97898.31;;;4.24;100.00
49759;BME280;35654;46.080;11.118;2022-12-10T08:48:10;97896.28;;;4.34;100.00
49759;BME280;35654;46.080;11.118;2022-12-10T08:50:37;97898.41;;;4.37;100.00
49759;BME280;35654;46.080;11.118;2022-12-10T08:53:03;97899.38;;;4.46;100.00
49759;BME280;35654;46.080;11.118;2022-12-10T08:55:28;97890.88;;;4.53;100.00
49759;BME280;35654;46.080;11.118;2022-12-10T08:57:54;97896.09;;;4.49;100.00
49759;BME280;35654;46.080;11.118;2022-12-10T09:00:20;97887.56;;;4.37;100.00
49759;BME280;35654;46.080;11.118;2022-12-10T09:02:46;97896.19;;;4.39;100.00
49759;BME280;35654;46.080;11.118;2022-12-10T09:05:11;97889.47;;;4.37;100.00
49759;BME280;35654;46.080;11.118;2022-12-10T09:07:37;97893.22;;;4.41;100.00
49759;BME280;35654;46.080;11.118;2022-12-10T09:10:04;97892.75;;;4.52;100.00
49759;BME280;35654;46.080;11.118;2022-12-10T09:12:29;97895.06;;;4.64;100.00
49759;BME280;35654;46.080;11.118;2022-12-10T09:14:55;97893.38;;;4.68;100.00
49759;BME280;35654;46.080;11.118;2022-12-10T09:17:21;97885.97;;;4.55;100.00
49759;BME280;35654;46.080;11.118;2022-12-10T09:19:46;97883.47;;;4.58;100.00
49759;BME280;35654;46.080;11.118;2022-12-10T09:22:13;97885.59;;;4.61;100.00
49759;BME280;35654;46.080;11.118;2022-12-10T09:24:38;97880.25;;;4.75;100.00
49759;BME280;35654;46.080;11.118;2022-12-10T09:27:03;97885.47;;;4.72;100.00
49759;BME280;35654;46.080;11.118;2022-12-10T09:29:29;97879.44;;;4.75;99.91
49759;BME280;35654;46.080;11.118;2022-12-10T09:31:54;97874.84;;;4.56;100.00
49759;BME280;35654;46.080;11.118;2022-12-10T09:34:20;97877.31;;;4.53;100.00
49759;BME280;35654;46.080;11.118;2022-12-10T09:36:46;97877.31;;;4.53;100.00
49759;BME280;35654;46.080;11.118;2022-12-10T09:39:12;97874.47;;;4.63;100.00
49759;BME280;35654;46.080;11.118;2022-12-10T09:41:47;97870.97;;;4.62;100.00
49759;BME280;35654;46.080;11.118;2022-12-10T09:47:08;97868.38;;;4.52;99.88
49759;BME280;35654;46.080;11.118;2022-12-10T09:49:58;97862.75;;;4.49;99.65
49759;BME280;35654;46.080;11.118;2022-12-10T09:52:34;97860.16;;;4.39;100.00
49759;BME280;35654;46.080;11.118;2022-12-10T09:55:05;97859.22;;;4.48;100.00
49759;BME280;35654;46.080;11.118;2022-12-10T09:57:41;97862.81;;;4.62;100.00
49759;BME280;35654;46.080;11.118;2022-12-10T10:00:25;97858.06;;;4.73;99.82
49759;BME280;35654;46.080;11.118;2022-12-10T10:02:56;97852.84;;;4.77;99.32
49759;BME280;35654;46.080;11.118;2022-12-10T10:05:27;97857.41;;;4.62;99.57
49759;BME280;35654;46.080;11.118;2022-12-10T10:07:56;97850.00;;;4.68;100.00
49759;BME280;35654;46.080;11.118;2022-12-10T10:15:37;97845.16;;;4.65;99.09
49759;BME280;35654;46.080;11.118;2022-12-10T10:18:21;97848.66;;;4.84;99.24
49759;BME280;35654;46.080;11.118;2022-12-10T10:20:50;97840.72;;;5.06;97.12
49759;BME280;35654;46.080;11.118;2022-12-10T10:23:15;97837.19;;;5.06;96.69
49759;BME280;35654;46.080;11.118;2022-12-10T10:25:42;97831.63;;;4.97;97.36
49759;BME280;35654;46.080;11.118;2022-12-10T10:28:20;97828.34;;;5.00;97.86
49759;BME280;35654;46.080;11.118;2022-12-10T10:30:46;97826.91;;;5.21;97.01
49759;BME280;35654;46.080;11.118;2022-12-10T10:33:14;97824.09;;;5.26;96.12
49759;BME280;35654;46.080;11.118;2022-12-10T10:36:09;97825.03;;;5.36;95.49
49759;BME280;35654;46.080;11.118;2022-12-10T10:38:36;97819.28;;;5.37;95.10
49759;BME280;35654;46.080;11.118;2022-12-10T10:41:03;97811.88;;;5.43;95.52
49759;BME280;35654;46.080;11.118;2022-12-10T10:43:38;97805.03;;;5.45;94.77
49759;BME280;35654;46.080;11.118;2022-12-10T10:46:11;97797.09;;;5.35;93.53
49759;BME280;35654;46.080;11.118;2022-12-10T10:48:38;97794.78;;;5.42;93.28
49759;BME280;35654;46.080;11.118;2022-12-10T10:51:07;97801.22;;;5.46;94.25
49759;BME280;35654;46.080;11.118;2022-12-10T10:53:44;97796.13;;;5.58;94.09
49759;BME280;35654;46.080;11.118;2022-12-10T10:56:14;97791.41;;;5.64;93.77
49759;BME280;35654;46.080;11.118;2022-12-10T11:01:15;97783.84;;;5.74;93.34
49759;BME280;35654;46.080;11.118;2022-12-10T11:03:47;97778.00;;;5.81;93.86
49759;BME280;35654;46.080;11.118;2022-12-10T11:06:13;97770.66;;;5.81;93.01
49759;BME280;35654;46.080;11.118;2022-12-10T11:08:41;97774.19;;;5.82;94.02
49759;BME280;35654;46.080;11.118;2022-12-10T11:11:17;97764.03;;;5.88;94.13
49759;BME280;35654;46.080;11.118;2022-12-10T11:13:44;97766.44;;;5.89;93.04
49759;BME280;35654;46.080;11.118;2022-12-10T11:18:43;97757.38;;;5.53;94.46
49759;BME280;35654;46.080;11.118;2022-12-10T11:21:18;97764.03;;;5.47;94.20
49759;BME280;35654;46.080;11.118;2022-12-10T11:23:48;97754.47;;;5.49;94.54
49759;BME280;35654;46.080;11.118;2022-12-10T11:39:43;97744.22;;;5.33;96.88
49759;BME280;35654;46.080;11.118;2022-12-10T11:42:34;97737.88;;;5.37;96.59
49759;BME280;35654;46.080;11.118;2022-12-10T11:50:52;97732.34;;;5.42;96.52
49759;BME280;35654;46.080;11.118;2022-12-10T11:53:36;97729.34;;;5.57;95.85
49759;BME280;35654;46.080;11.118;2022-12-10T11:56:09;97715.56;;;5.54;95.93
49759;BME280;35654;46.080;11.118;2022-12-10T12:03:44;97712.22;;;5.70;94.43
49759;BME280;35654;46.080;11.118;2022-12-10T12:14:23;97684.91;;;6.16;94.04
49759;BME280;35654;46.080;11.118;2022-12-10T12:16:59;97692.88;;;6.35;92.44
49759;BME280;35654;46.080;11.118;2022-12-10T12:19:33;97686.97;;;6.33;91.68
49759;BME280;35654;46.080;11.118;2022-12-10T12:22:06;97684.66;;;6.26;91.86
49759;BME280;35654;46.080;11.118;2022-12-10T12:24:35;97674.41;;;6.45;89.88
49759;BME280;35654;46.080;11.118;2022-12-10T12:27:08;97672.97;;;6.48;89.01
49759;BME280;35654;46.080;11.118;2022-12-10T12:29:46;97677.25;;;6.40;90.83
49759;BME280;35654;46.080;11.118;2022-12-10T12:32:23;97674.22;;;6.64;89.64
49759;BME280;35654;46.080;11.118;2022-12-10T12:34:59;97663.50;;;6.68;88.08
49759;BME280;35654;46.080;11.118;2022-12-10T12:37:34;97666.38;;;6.40;88.59
49759;BME280;35654;46.080;11.118;2022-12-10T12:40:13;97659.22;;;6.44;90.36
49759;BME280;35654;46.080;11.118;2022-12-10T12:42:54;97654.34;;;6.55;90.31
49759;BME280;35654;46.080;11.118;2022-12-10T12:53:47;97656.56;;;6.53;87.90
49759;BME280;35654;46.080;11.118;2022-12-10T13:01:54;97648.66;;;6.21;90.42
49759;BME280;35654;46.080;11.118;2022-12-10T13:04:23;97641.28;;;6.21;90.76
49759;BME280;35654;46.080;11.118;2022-12-10T13:12:45;97630.34;;;6.13;91.29
49759;BME280;35654;46.080;11.118;2022-12-10T13:15:20;97627.56;;;6.04;92.93
49759;BME280;35654;46.080;11.118;2022-12-10T13:20:47;97619.22;;;6.23;92.12
49759;BME280;35654;46.080;11.118;2022-12-10T13:41:33;97606.84;;;6.92;89.38
49759;BME280;35654;46.080;11.118;2022-12-10T13:44:25;97611.63;;;6.86;88.51
49759;BME280;35654;46.080;11.118;2022-12-10T13:49:28;97611.16;;;6.93;88.03
49759;BME280;35654;46.080;11.118;2022-12-10T13:52:05;97611.22;;;7.10;87.14
49759;BME280;35654;46.080;11.118;2022-12-10T14:00:21;97604.97;;;6.70;88.21
49759;BME280;35654;46.080;11.118;2022-12-10T14:07:52;97612.50;;;6.42;91.79
49759;BME280;35654;46.080;11.118;2022-12-10T14:10:30;97612.69;;;6.46;90.86
49759;BME280;35654;46.080;11.118;2022-12-10T14:12:56;97608.09;;;6.55;91.03
49759;BME280;35654;46.080;11.118;2022-12-10T14:15:23;97606.34;;;6.59;90.72
49759;BME280;35654;46.080;11.118;2022-12-10T14:18:10;97613.06;;;6.53;90.62
49759;BME280;35654;46.080;11.118;2022-12-10T14:20:39;97609.00;;;6.42;91.38
49759;BME280;35654;46.080;11.118;2022-12-10T14:25:59;97609.44;;;6.66;90.40
49759;BME280;35654;46.080;11.118;2022-12-10T14:28:29;97610.78;;;6.77;89.10
49759;BME280;35654;46.080;11.118;2022-12-10T14:30:55;97605.63;;;6.76;89.50
49759;BME280;35654;46.080;11.118;2022-12-10T14:33:22;97597.31;;;6.72;89.38
49759;BME280;35654;46.080;11.118;2022-12-10T14:35:49;97611.63;;;6.56;89.98
49759;BME280;35654;46.080;11.118;2022-12-10T14:38:27;97613.97;;;6.49;91.26
49759;BME280;35654;46.080;11.118;2022-12-10T14:40:54;97611.34;;;6.35;91.93
49759;BME280;35654;46.080;11.118;2022-12-10T14:43:23;97609.41;;;6.35;92.40
49759;BME280;35654;46.080;11.118;2022-12-10T14:46:00;97611.59;;;6.25;93.04
49759;BME280;35654;46.080;11.118;2022-12-10T14:48:26;97607.75;;;6.04;93.97
49759;BME280;35654;46.080;11.118;2022-12-10T14:50:52;97612.13;;;5.91;95.13
49759;BME280;35654;46.080;11.118;2022-12-10T14:53:28;97606.72;;;5.77;96.28
49759;BME280;35654;46.080;11.118;2022-12-10T14:55:58;97611.47;;;5.72;96.78
49759;BME280;35654;46.080;11.118;2022-12-10T15:00:59;97612.44;;;5.76;96.29
49759;BME280;35654;46.080;11.118;2022-12-10T15:03:30;97612.44;;;5.76;96.31
49759;BME280;35654;46.080;11.118;2022-12-10T15:06:01;97621.03;;;5.69;96.92
49759;BME280;35654;46.080;11.118;2022-12-10T15:08:27;97618.31;;;5.56;97.97
49759;BME280;35654;46.080;11.118;2022-12-10T15:10:58;97617.03;;;5.40;99.02